Time;durP1;ratioP1;P1;durP2;ratioP2;P2;SDS_P1;SDS_P2;PMS_P1;PMS_P2;Temp;Humidity;BMP_temperature;BMP_pressure;BME280_temperature;BME280_humidity;BME280_pressure;Samples;Min_cycle;Max_cycle;Signal;HPM_P1;HPM_P2
2023/05/30 00:01:07;;;;;;;4.47;4.20;;;;;;;;;;4993318;28;20435;-60
2023/05/30 00:03:35;;;;;;;5.30;4.80;;;;;;;;;;4993413;28;20414;-60
2023/05/30 00:06:01;;;;;;;6.83;4.80;;;;;;;;;;4992851;28;20426;-60
2023/05/30 00:08:32;;;;;;;5.37;4.90;;;;;;;;;;4993252;28;20423;-60
2023/05/30 00:10:58;;;;;;;4.77;4.37;;;;;;;;;;4992642;28;20462;-60
2023/05/30 00:13:28;;;;;;;4.93;4.40;;;;;;;;;;4993157;28;20434;-60
2023/05/30 00:15:57;;;;;;;5.30;4.73;;;;;;;;;;4992816;28;20462;-60
2023/05/30 00:18:24;;;;;;;5.00;4.60;;;;;;;;;;4992987;28;20943;-60
2023/05/30 00:20:55;;;;;;;4.97;4.57;;;;;;;;;;4992688;28;20465;-60
2023/05/30 00:23:22;;;;;;;5.03;4.73;;;;;;;;;;4992644;28;20446;-60
2023/05/30 00:25:48;;;;;;;5.60;5.10;;;;;;;;;;4992703;28;20413;-60
2023/05/30 00:28:14;;;;;;;6.20;5.10;;;;;;;;;;4992958;28;20418;-60
2023/05/30 00:30:41;;;;;;;7.23;5.13;;;;;;;;;;4992934;28;20788;-60
2023/05/30 00:33:07;;;;;;;5.70;5.30;;;;;;;;;;4992568;28;20415;-60
2023/05/30 00:35:33;;;;;;;6.60;5.07;;;;;;;;;;4992727;28;20581;-60
2023/05/30 00:37:59;;;;;;;5.30;5.00;;;;;;;;;;4992668;28;20414;-60
2023/05/30 00:40:25;;;;;;;5.30;4.87;;;;;;;;;;4992790;28;20870;-60
2023/05/30 00:42:51;;;;;;;7.40;4.97;;;;;;;;;;4992950;28;20868;-60
2023/05/30 00:45:17;;;;;;;5.97;5.40;;;;;;;;;;4992469;28;20425;-60
2023/05/30 00:47:44;;;;;;;7.40;4.90;;;;;;;;;;4992821;28;20831;-60
2023/05/30 00:50:12;;;;;;;5.60;5.00;;;;;;;;;;4992583;28;20455;-60
2023/05/30 00:52:38;;;;;;;9.53;5.20;;;;;;;;;;4992611;28;20425;-60
2023/05/30 00:55:07;;;;;;;5.27;4.77;;;;;;;;;;4992428;28;20469;-60
2023/05/30 00:57:36;;;;;;;7.73;4.70;;;;;;;;;;4992670;28;20425;-60
2023/05/30 01:00:04;;;;;;;6.50;5.50;;;;;;;;;;4992408;28;20426;-60
2023/05/30 01:02:33;;;;;;;15.07;5.40;;;;;;;;;;4992928;28;20414;-60
2023/05/30 01:05:02;;;;;;;6.87;5.23;;;;;;;;;;4996296;28;20410;-60
2023/05/30 01:07:31;;;;;;;5.80;5.30;;;;;;;;;;4995278;28;20425;-60
2023/05/30 01:09:58;;;;;;;6.10;5.50;;;;;;;;;;4996600;28;20421;-60
2023/05/30 01:12:29;;;;;;;6.27;5.03;;;;;;;;;;4996180;28;20441;-60
2023/05/30 01:15:13;;;;;;;5.83;4.80;;;;;;;;;;4996495;28;20464;-60
2023/05/30 01:18:01;;;;;;;7.20;4.90;;;;;;;;;;4996134;28;20453;-60
2023/05/30 01:20:28;;;;;;;5.17;4.80;;;;;;;;;;4996165;28;20421;-60
2023/05/30 01:22:59;;;;;;;10.53;5.30;;;;;;;;;;4996497;28;20424;-60
2023/05/30 01:25:45;;;;;;;5.50;4.67;;;;;;;;;;4996223;28;20424;-60
2023/05/30 01:28:16;;;;;;;7.70;5.20;;;;;;;;;;4966217;28;20428;-60
2023/05/30 01:30:54;;;;;;;5.70;5.17;;;;;;;;;;4995610;28;20452;-60
2023/05/30 01:33:20;;;;;;;6.17;5.67;;;;;;;;;;4996168;28;20958;-60
2023/05/30 01:35:46;;;;;;;5.83;5.40;;;;;;;;;;4995988;28;20945;-60
2023/05/30 01:38:12;;;;;;;5.20;4.70;;;;;;;;;;4996091;28;20505;-60
2023/05/30 01:40:39;;;;;;;6.30;5.47;;;;;;;;;;4995687;28;20491;-60
2023/05/30 01:43:08;;;;;;;9.23;5.70;;;;;;;;;;4995725;28;20429;-60
2023/05/30 01:45:33;;;;;;;10.20;5.90;;;;;;;;;;4995873;28;20498;-60
2023/05/30 01:48:04;;;;;;;6.20;5.40;;;;;;;;;;4995938;28;20413;-60
2023/05/30 01:50:32;;;;;;;8.27;5.87;;;;;;;;;;4995093;28;20570;-60
2023/05/30 01:53:02;;;;;;;10.60;5.90;;;;;;;;;;4995677;28;20456;-60
2023/05/30 01:55:30;;;;;;;8.60;4.57;;;;;;;;;;4995515;28;20483;-60
2023/05/30 01:57:58;;;;;;;7.90;5.93;;;;;;;;;;4995365;28;20434;-60
2023/05/30 02:00:25;;;;;;;7.83;5.73;;;;;;;;;;4995543;28;20925;-60
2023/05/30 02:02:51;;;;;;;9.23;5.77;;;;;;;;;;4995256;28;20452;-60
2023/05/30 02:05:17;;;;;;;7.63;6.13;;;;;;;;;;4995567;28;20425;-60
2023/05/30 02:07:46;;;;;;;5.47;5.00;;;;;;;;;;4995101;28;20452;-60
2023/05/30 02:10:14;;;;;;;14.20;6.40;;;;;;;;;;4995178;28;20421;-60
2023/05/30 02:12:40;;;;;;;16.97;6.80;;;;;;;;;;4995365;28;20440;-60
2023/05/30 02:15:07;;;;;;;7.77;5.50;;;;;;;;;;4994991;28;20487;-60
2023/05/30 02:17:33;;;;;;;8.47;5.43;;;;;;;;;;4995096;28;20449;-60
2023/05/30 02:19:59;;;;;;;6.43;5.83;;;;;;;;;;4994734;28;20423;-60
2023/05/30 02:22:28;;;;;;;7.00;6.00;;;;;;;;;;4995062;28;20416;-60
2023/05/30 02:24:55;;;;;;;6.43;5.70;;;;;;;;;;4994900;28;20476;-60
2023/05/30 02:27:21;;;;;;;6.97;6.00;;;;;;;;;;4994789;28;20507;-60
2023/05/30 02:29:47;;;;;;;6.33;4.97;;;;;;;;;;4994759;28;20861;-60
2023/05/30 02:32:15;;;;;;;9.93;5.30;;;;;;;;;;4994819;28;20512;-60
2023/05/30 02:34:41;;;;;;;10.50;6.60;;;;;;;;;;4994808;28;20468;-60
2023/05/30 02:37:07;;;;;;;7.97;5.87;;;;;;;;;;4994915;28;20896;-60
2023/05/30 02:39:33;;;;;;;8.73;6.30;;;;;;;;;;4994849;28;20412;-60
2023/05/30 02:42:02;;;;;;;7.57;5.97;;;;;;;;;;4994945;28;20452;-60
2023/05/30 02:44:30;;;;;;;6.33;5.87;;;;;;;;;;4994795;28;20512;-60
2023/05/30 02:46:56;;;;;;;8.87;5.50;;;;;;;;;;4994733;28;20815;-60
2023/05/30 02:49:24;;;;;;;14.60;6.23;;;;;;;;;;4994605;28;20413;-60
2023/05/30 02:51:51;;;;;;;8.57;6.23;;;;;;;;;;4994594;28;20445;-60
2023/05/30 02:54:17;;;;;;;9.27;5.67;;;;;;;;;;4994640;28;20464;-60
2023/05/30 02:56:43;;;;;;;5.93;5.30;;;;;;;;;;4994722;28;20418;-60
2023/05/30 02:59:09;;;;;;;6.70;6.03;;;;;;;;;;4994609;28;20429;-60
2023/05/30 03:01:34;;;;;;;6.43;5.77;;;;;;;;;;4994552;28;20418;-62
2023/05/30 03:04:00;;;;;;;6.57;5.70;;;;;;;;;;4994108;28;20415;-60
2023/05/30 03:06:31;;;;;;;10.70;6.57;;;;;;;;;;4994163;28;20471;-60
2023/05/30 03:08:57;;;;;;;6.47;5.77;;;;;;;;;;4994375;28;20510;-60
2023/05/30 03:11:25;;;;;;;9.83;5.67;;;;;;;;;;4994483;28;20954;-60
2023/05/30 03:13:51;;;;;;;9.03;5.60;;;;;;;;;;4994033;28;20419;-60
2023/05/30 03:16:17;;;;;;;9.13;6.23;;;;;;;;;;4994255;28;20543;-60
2023/05/30 03:18:46;;;;;;;8.17;5.73;;;;;;;;;;4993823;28;20874;-60
2023/05/30 03:21:15;;;;;;;17.97;5.67;;;;;;;;;;4994058;28;20832;-60
2023/05/30 03:23:41;;;;;;;7.80;5.33;;;;;;;;;;4993436;28;20474;-60
2023/05/30 03:26:07;;;;;;;9.33;5.90;;;;;;;;;;4993211;28;20448;-60
2023/05/30 03:28:33;;;;;;;8.87;6.00;;;;;;;;;;4993900;28;20416;-60
2023/05/30 03:31:00;;;;;;;13.10;7.10;;;;;;;;;;4993484;28;20861;-60
2023/05/30 03:33:29;;;;;;;18.37;6.17;;;;;;;;;;4993805;28;20431;-60
2023/05/30 03:35:55;;;;;;;10.47;6.43;;;;;;;;;;4993782;28;20468;-61
2023/05/30 03:38:21;;;;;;;9.43;6.27;;;;;;;;;;4993727;28;20753;-61
2023/05/30 03:40:47;;;;;;;7.90;6.03;;;;;;;;;;4993615;28;20806;-61
2023/05/30 03:43:13;;;;;;;8.33;5.60;;;;;;;;;;4993645;28;20439;-59
2023/05/30 03:45:39;;;;;;;8.83;5.73;;;;;;;;;;4993606;28;20417;-59
2023/05/30 03:48:05;;;;;;;11.10;6.70;;;;;;;;;;4992171;28;20828;-59
2023/05/30 03:50:31;;;;;;;9.03;5.93;;;;;;;;;;4993062;28;20494;-61
2023/05/30 03:53:00;;;;;;;7.03;5.60;;;;;;;;;;4993395;28;20420;-59
2023/05/30 03:55:26;;;;;;;14.57;6.20;;;;;;;;;;4993015;28;20478;-59
2023/05/30 03:57:52;;;;;;;15.53;6.07;;;;;;;;;;4993370;28;20415;-59
2023/05/30 04:00:18;;;;;;;8.20;5.90;;;;;;;;;;4992067;28;20471;-60
2023/05/30 04:02:44;;;;;;;10.87;6.03;;;;;;;;;;4993336;28;20443;-60
2023/05/30 04:05:10;;;;;;;15.27;5.60;;;;;;;;;;4993479;28;20494;-60
2023/05/30 04:07:36;;;;;;;11.47;5.70;;;;;;;;;;4993399;28;20914;-60
2023/05/30 04:10:05;;;;;;;10.20;6.17;;;;;;;;;;4993222;28;20467;-60
2023/05/30 04:12:31;;;;;;;7.73;5.40;;;;;;;;;;5008183;23;20510;-60
2023/05/30 04:14:57;;;;;;;7.83;5.70;;;;;;;;;;4973885;28;20488;-60
2023/05/30 04:17:24;;;;;;;7.00;5.53;;;;;;;;;;4973680;28;20456;-60
2023/05/30 04:19:52;;;;;;;8.87;6.00;;;;;;;;;;4973857;28;20413;-60
2023/05/30 04:22:18;;;;;;;8.53;5.60;;;;;;;;;;4973715;28;20436;-60
2023/05/30 04:24:45;;;;;;;7.73;5.33;;;;;;;;;;4973058;28;20453;-60
2023/05/30 04:27:13;;;;;;;8.83;5.00;;;;;;;;;;4972138;28;20511;-60
2023/05/30 04:29:46;;;;;;;12.37;5.37;;;;;;;;;;4973622;28;20433;-60
2023/05/30 04:32:12;;;;;;;13.63;5.80;;;;;;;;;;4973505;28;20431;-60
2023/05/30 04:34:39;;;;;;;7.63;5.50;;;;;;;;;;4973396;28;20533;-60
2023/05/30 04:37:06;;;;;;;11.10;6.37;;;;;;;;;;4973731;28;20475;-60
2023/05/30 04:39:33;;;;;;;8.03;5.37;;;;;;;;;;4972933;28;20424;-60
2023/05/30 04:41:59;;;;;;;12.10;6.13;;;;;;;;;;4973162;28;20705;-60
2023/05/30 04:44:25;;;;;;;6.77;5.40;;;;;;;;;;4973171;28;20426;-60
2023/05/30 04:46:52;;;;;;;6.13;4.47;;;;;;;;;;4973506;28;20491;-60
2023/05/30 04:49:18;;;;;;;10.63;5.80;;;;;;;;;;4973203;28;20464;-60
2023/05/30 04:51:46;;;;;;;9.33;5.60;;;;;;;;;;4972975;28;20422;-60
2023/05/30 04:54:13;;;;;;;7.03;5.60;;;;;;;;;;4973044;28;20439;-60
2023/05/30 04:56:40;;;;;;;7.97;5.63;;;;;;;;;;4973206;28;20451;-61
2023/05/30 04:59:06;;;;;;;8.90;5.03;;;;;;;;;;4973229;28;20505;-60
2023/05/30 05:01:35;;;;;;;8.20;5.80;;;;;;;;;;4972881;28;20511;-60
2023/05/30 05:04:01;;;;;;;8.90;6.00;;;;;;;;;;4973203;28;20509;-60
2023/05/30 05:06:27;;;;;;;6.10;5.60;;;;;;;;;;4973206;28;20502;-60
2023/05/30 05:08:53;;;;;;;8.60;5.40;;;;;;;;;;4971955;28;20432;-60
2023/05/30 05:11:21;;;;;;;10.83;5.90;;;;;;;;;;4973103;28;20520;-59
2023/05/30 05:13:49;;;;;;;10.20;5.63;;;;;;;;;;4973007;28;20942;-60
2023/05/30 05:16:15;;;;;;;9.00;5.40;;;;;;;;;;4972733;28;20476;-60
2023/05/30 05:18:41;;;;;;;15.53;6.30;;;;;;;;;;4972925;28;20458;-60
2023/05/30 05:21:10;;;;;;;11.40;6.30;;;;;;;;;;4973006;28;20838;-58
2023/05/30 05:23:36;;;;;;;8.43;5.87;;;;;;;;;;4972975;28;20466;-59
2023/05/30 05:26:02;;;;;;;8.80;5.53;;;;;;;;;;4973245;28;20940;-59
2023/05/30 05:28:28;;;;;;;8.90;5.10;;;;;;;;;;4973140;28;20441;-59
2023/05/30 05:30:54;;;;;;;8.83;5.33;;;;;;;;;;4973105;28;20455;-59
2023/05/30 05:33:20;;;;;;;10.47;5.90;;;;;;;;;;4972707;28;20448;-59
2023/05/30 05:35:48;;;;;;;10.40;5.70;;;;;;;;;;4972783;28;20522;-59
2023/05/30 05:38:14;;;;;;;7.07;5.30;;;;;;;;;;4972781;28;20504;-59
2023/05/30 05:40:40;;;;;;;5.70;4.97;;;;;;;;;;4972851;28;20983;-59
2023/05/30 05:43:06;;;;;;;9.40;5.53;;;;;;;;;;4972968;28;20572;-59
2023/05/30 05:45:32;;;;;;;16.43;6.10;;;;;;;;;;4972654;28;20455;-59
2023/05/30 05:48:01;;;;;;;9.17;5.37;;;;;;;;;;4972858;28;20418;-59
2023/05/30 05:50:30;;;;;;;7.00;4.87;;;;;;;;;;4976168;28;20525;-59
2023/05/30 05:52:56;;;;;;;7.80;5.30;;;;;;;;;;4976296;28;20457;-59
2023/05/30 05:55:22;;;;;;;5.87;5.30;;;;;;;;;;4975992;28;20586;-59
2023/05/30 05:57:48;;;;;;;8.97;5.47;;;;;;;;;;4976447;28;20784;-59
2023/05/30 06:00:15;;;;;;;9.50;5.97;;;;;;;;;;4976061;28;20409;-59
2023/05/30 06:02:41;;;;;;;5.37;4.87;;;;;;;;;;4976014;28;20904;-59
2023/05/30 06:05:07;;;;;;;8.00;5.20;;;;;;;;;;4975986;28;20744;-59
2023/05/30 06:07:34;;;;;;;9.73;5.40;;;;;;;;;;4976244;28;20503;-58
2023/05/30 06:10:02;;;;;;;9.20;4.80;;;;;;;;;;4975847;28;20430;-59
2023/05/30 06:12:28;;;;;;;8.10;4.67;;;;;;;;;;4975888;28;20496;-59
2023/05/30 06:14:54;;;;;;;18.23;5.60;;;;;;;;;;4975536;28;20465;-59
2023/05/30 06:17:23;;;;;;;9.60;6.00;;;;;;;;;;4975706;28;20414;-59
2023/05/30 06:19:52;;;;;;;8.20;5.23;;;;;;;;;;4975364;28;20504;-60
2023/05/30 06:22:18;;;;;;;9.93;5.80;;;;;;;;;;4974975;28;20879;-60
2023/05/30 06:24:44;;;;;;;7.60;4.77;;;;;;;;;;4975035;28;20455;-60
2023/05/30 06:27:10;;;;;;;9.50;5.10;;;;;;;;;;4975227;28;20438;-60
2023/05/30 06:29:36;;;;;;;6.57;5.27;;;;;;;;;;4975738;28;20426;-61
2023/05/30 06:32:02;;;;;;;9.10;5.10;;;;;;;;;;4975244;28;20483;-60
2023/05/30 06:34:28;;;;;;;14.73;4.83;;;;;;;;;;4975514;28;20461;-60
2023/05/30 06:36:56;;;;;;;11.20;4.97;;;;;;;;;;4975484;28;20788;-61
2023/05/30 06:39:22;;;;;;;8.23;4.70;;;;;;;;;;4975471;28;20901;-60
2023/05/30 06:41:48;;;;;;;5.80;5.27;;;;;;;;;;4975597;28;20437;-61
2023/05/30 06:44:14;;;;;;;11.17;4.80;;;;;;;;;;4975799;28;20430;-61
2023/05/30 06:46:40;;;;;;;11.07;5.20;;;;;;;;;;4976094;28;20437;-60
2023/05/30 06:49:09;;;;;;;9.67;5.20;;;;;;;;;;4975795;28;20470;-61
2023/05/30 06:51:36;;;;;;;8.03;4.80;;;;;;;;;;4975611;28;20898;-60
2023/05/30 06:54:02;;;;;;;5.37;4.87;;;;;;;;;;4974902;28;20477;-60
2023/05/30 06:56:28;;;;;;;9.90;5.40;;;;;;;;;;4975168;28;20426;-60
2023/05/30 06:58:54;;;;;;;14.37;5.30;;;;;;;;;;4975466;28;20418;-60
2023/05/30 07:01:23;;;;;;;8.77;5.50;;;;;;;;;;4974644;28;20427;-60
2023/05/30 07:03:49;;;;;;;9.73;5.30;;;;;;;;;;4975105;28;20414;-60
2023/05/30 07:06:15;;;;;;;6.00;4.73;;;;;;;;;;4975002;28;20763;-61
2023/05/30 07:08:41;;;;;;;9.30;5.40;;;;;;;;;;4975187;28;20412;-60
2023/05/30 07:11:09;;;;;;;6.40;4.70;;;;;;;;;;4974027;28;20426;-60
2023/05/30 07:13:35;;;;;;;5.60;5.07;;;;;;;;;;4974947;28;20943;-60
2023/05/30 07:16:01;;;;;;;10.87;5.00;;;;;;;;;;4975090;28;20467;-60
2023/05/30 07:18:27;;;;;;;5.50;4.60;;;;;;;;;;4974834;28;20420;-60
2023/05/30 07:20:53;;;;;;;10.03;5.40;;;;;;;;;;4974619;28;20408;-60
2023/05/30 07:23:19;;;;;;;7.40;5.30;;;;;;;;;;4974710;28;20417;-60
2023/05/30 07:25:45;;;;;;;9.83;4.50;;;;;;;;;;4974502;28;20850;-59
2023/05/30 07:28:11;;;;;;;8.77;5.40;;;;;;;;;;4974915;28;20429;-60
2023/05/30 07:30:37;;;;;;;6.60;5.10;;;;;;;;;;4973175;28;20433;-60
2023/05/30 07:33:03;;;;;;;5.80;5.20;;;;;;;;;;4974541;28;20873;-59
2023/05/30 07:35:29;;;;;;;13.00;5.57;;;;;;;;;;4974912;28;20489;-59
2023/05/30 07:37:55;;;;;;;7.17;4.80;;;;;;;;;;4974861;28;20414;-59
2023/05/30 07:40:21;;;;;;;5.43;4.90;;;;;;;;;;4974571;28;20415;-59
2023/05/30 07:42:49;;;;;;;7.60;4.50;;;;;;;;;;4973119;28;20448;-59
2023/05/30 07:45:20;;;;;;;11.43;5.30;;;;;;;;;;4974289;28;20505;-59
2023/05/30 07:47:46;;;;;;;9.27;5.23;;;;;;;;;;4974995;28;20435;-58
2023/05/30 07:50:12;;;;;;;15.33;5.90;;;;;;;;;;4974515;28;20773;-58
2023/05/30 07:52:38;;;;;;;7.53;5.30;;;;;;;;;;4972726;28;20530;-58
2023/05/30 07:55:04;;;;;;;7.40;4.93;;;;;;;;;;4974272;28;20460;-59
2023/05/30 07:57:31;;;;;;;8.27;5.23;;;;;;;;;;4974260;28;20454;-59
2023/05/30 07:59:58;;;;;;;5.03;4.67;;;;;;;;;;4974107;28;20430;-59
2023/05/30 08:02:26;;;;;;;7.80;5.10;;;;;;;;;;4973553;28;20411;-59
2023/05/30 08:04:53;;;;;;;8.20;4.93;;;;;;;;;;4973905;28;20471;-59
2023/05/30 08:07:21;;;;;;;6.10;5.13;;;;;;;;;;4974104;28;20852;-59
2023/05/30 08:09:47;;;;;;;4.60;4.23;;;;;;;;;;4974095;28;20425;-59
2023/05/30 08:12:17;;;;;;;7.97;4.63;;;;;;;;;;4973720;28;20447;-59
2023/05/30 08:14:43;;;;;;;12.83;5.13;;;;;;;;;;4972882;28;20505;-59
2023/05/30 08:17:11;;;;;;;37.70;19.60;;;;;;;;;;4973815;28;20442;-59
2023/05/30 08:19:37;;;;;;;52.67;32.23;;;;;;;;;;4974173;28;20508;-59
2023/05/30 08:22:03;;;;;;;16.20;8.53;;;;;;;;;;4973961;28;20438;-59
2023/05/30 08:24:30;;;;;;;13.43;7.67;;;;;;;;;;4973766;28;20425;-59
2023/05/30 08:26:56;;;;;;;52.10;33.87;;;;;;;;;;4972808;28;20485;-59
2023/05/30 08:29:22;;;;;;;27.00;14.20;;;;;;;;;;4972702;28;20794;-59
2023/05/30 08:31:48;;;;;;;7.67;5.20;;;;;;;;;;4972807;28;20433;-59
2023/05/30 08:34:16;;;;;;;9.87;5.30;;;;;;;;;;4974035;28;20430;-59
2023/05/30 08:36:42;;;;;;;11.90;4.80;;;;;;;;;;4973750;28;20428;-59
2023/05/30 08:39:08;;;;;;;6.80;4.90;;;;;;;;;;4973148;28;20422;-59
2023/05/30 08:41:34;;;;;;;9.07;5.00;;;;;;;;;;4973491;28;20419;-59
2023/05/30 08:44:00;;;;;;;10.60;5.80;;;;;;;;;;4973364;28;20921;-59
2023/05/30 08:46:26;;;;;;;5.73;5.20;;;;;;;;;;4973501;28;20493;-59
2023/05/30 08:48:52;;;;;;;7.73;5.20;;;;;;;;;;4973688;28;20452;-59
2023/05/30 08:51:18;;;;;;;6.17;4.60;;;;;;;;;;4973059;28;20901;-59
2023/05/30 08:53:54;;;;;;;9.73;4.93;;;;;;;;;;4972412;28;20449;-59
2023/05/30 08:56:28;;;;;;;5.90;5.07;;;;;;;;;;4973372;28;21051;-59
2023/05/30 08:58:54;;;;;;;34.40;19.30;;;;;;;;;;4973585;28;20783;-63
2023/05/30 09:01:20;;;;;;;21.77;12.30;;;;;;;;;;4973590;28;20998;-58
2023/05/30 09:03:50;;;;;;;50.10;21.60;;;;;;;;;;4972388;28;20411;-58
2023/05/30 09:06:16;;;;;;;20.83;11.93;;;;;;;;;;4973575;28;20495;-57
2023/05/30 09:08:45;;;;;;;16.90;8.80;;;;;;;;;;4973402;28;20442;-58
2023/05/30 09:11:11;;;;;;;13.57;6.80;;;;;;;;;;4973443;28;20498;-57
2023/05/30 09:13:37;;;;;;;53.93;28.10;;;;;;;;;;4972886;28;20435;-58
2023/05/30 09:16:03;;;;;;;72.33;42.87;;;;;;;;;;4971825;28;21070;-58
2023/05/30 09:18:30;;;;;;;35.97;22.10;;;;;;;;;;4973369;28;20767;-58
2023/05/30 09:20:57;;;;;;;13.73;5.60;;;;;;;;;;4973499;28;20410;-58
2023/05/30 09:23:23;;;;;;;7.40;4.80;;;;;;;;;;4973330;28;20474;-58
2023/05/30 09:25:51;;;;;;;8.33;5.10;;;;;;;;;;4977029;28;20427;-57
2023/05/30 09:28:23;;;;;;;9.27;5.47;;;;;;;;;;4977141;28;20423;-58
2023/05/30 09:31:02;;;;;;;15.57;8.00;;;;;;;;;;4976796;28;20502;-58
2023/05/30 09:33:47;;;;;;;7.77;4.40;;;;;;;;;;4977030;28;20550;-58
2023/05/30 09:36:18;;;;;;;6.17;5.30;;;;;;;;;;4976857;28;20528;-58
2023/05/30 09:38:56;;;;;;;6.40;5.80;;;;;;;;;;4976789;28;20443;-58
2023/05/30 09:41:26;;;;;;;12.20;5.53;;;;;;;;;;4976747;28;20531;-58
2023/05/30 09:43:53;;;;;;;7.00;4.73;;;;;;;;;;4976489;28;20463;-58
2023/05/30 09:46:20;;;;;;;8.13;4.80;;;;;;;;;;4976726;28;20422;-58
2023/05/30 09:48:47;;;;;;;11.30;5.20;;;;;;;;;;4976644;28;20487;-58
2023/05/30 09:51:16;;;;;;;8.60;4.97;;;;;;;;;;4976962;28;20418;-58
2023/05/30 09:53:55;;;;;;;5.57;4.63;;;;;;;;;;4976242;28;20487;-58
2023/05/30 09:56:21;;;;;;;11.60;5.07;;;;;;;;;;4976072;28;20608;-58
2023/05/30 09:58:47;;;;;;;10.33;5.27;;;;;;;;;;4976458;28;20431;-58
2023/05/30 10:01:16;;;;;;;5.10;4.57;;;;;;;;;;4976446;28;20409;-58
2023/05/30 10:03:43;;;;;;;6.57;4.63;;;;;;;;;;4976175;28;20417;-58
2023/05/30 10:06:15;;;;;;;9.13;4.80;;;;;;;;;;4976394;28;20425;-58
2023/05/30 10:08:48;;;;;;;8.43;5.27;;;;;;;;;;4976027;28;20444;-58
2023/05/30 10:11:14;;;;;;;10.57;4.80;;;;;;;;;;4975053;28;20434;-57
2023/05/30 10:13:40;;;;;;;8.63;5.03;;;;;;;;;;5031200;23;20500;-58
2023/05/30 10:16:14;;;;;;;7.50;5.40;;;;;;;;;;5015274;28;20459;-58
2023/05/30 10:18:44;;;;;;;7.73;4.80;;;;;;;;;;5015397;28;20451;-58
2023/05/30 10:21:15;;;;;;;10.93;4.50;;;;;;;;;;5015647;28;20991;-58
2023/05/30 10:23:41;;;;;;;7.43;4.63;;;;;;;;;;5015245;28;20503;-58
2023/05/30 10:26:08;;;;;;;5.30;4.80;;;;;;;;;;5015405;28;20491;-58
2023/05/30 10:28:35;;;;;;;10.87;5.10;;;;;;;;;;5015120;28;20481;-58
2023/05/30 10:31:05;;;;;;;7.07;5.37;;;;;;;;;;5013802;28;20480;-58
2023/05/30 10:33:36;;;;;;;7.83;4.90;;;;;;;;;;5015508;28;20891;-58
2023/05/30 10:36:02;;;;;;;6.57;5.30;;;;;;;;;;5015632;28;20469;-57
2023/05/30 10:38:35;;;;;;;7.73;5.13;;;;;;;;;;5015114;28;20427;-58
2023/05/30 10:41:06;;;;;;;5.70;5.07;;;;;;;;;;5014513;28;20410;-58
2023/05/30 10:43:47;;;;;;;8.40;4.93;;;;;;;;;;5014496;28;20435;-58
2023/05/30 10:46:13;;;;;;;5.90;4.60;;;;;;;;;;5014684;28;20429;-58
2023/05/30 10:48:56;;;;;;;11.77;5.30;;;;;;;;;;5014585;28;20448;-58
2023/05/30 10:51:24;;;;;;;5.27;4.87;;;;;;;;;;5014532;28;20416;-57
2023/05/30 10:53:50;;;;;;;11.10;5.00;;;;;;;;;;5014593;28;20531;-57
2023/05/30 10:56:35;;;;;;;5.67;4.73;;;;;;;;;;5014761;28;20515;-57
2023/05/30 10:59:04;;;;;;;6.27;5.00;;;;;;;;;;5014284;28;20401;-57
2023/05/30 11:01:31;;;;;;;4.63;4.17;;;;;;;;;;5014791;28;20478;-58
2023/05/30 11:04:07;;;;;;;10.43;5.20;;;;;;;;;;5013814;28;20410;-57
2023/05/30 11:06:36;;;;;;;4.83;4.40;;;;;;;;;;5014268;28;20465;-57
2023/05/30 11:09:09;;;;;;;4.93;4.53;;;;;;;;;;5014100;28;20438;-58
2023/05/30 11:11:54;;;;;;;17.83;4.30;;;;;;;;;;5014354;28;20414;-58
2023/05/30 11:14:30;;;;;;;6.43;4.20;;;;;;;;;;5012772;28;20438;-58
2023/05/30 11:17:05;;;;;;;16.47;4.70;;;;;;;;;;5014587;28;20402;-58
2023/05/30 11:19:35;;;;;;;5.93;4.80;;;;;;;;;;5014249;28;20533;-58
2023/05/30 11:22:02;;;;;;;6.93;5.13;;;;;;;;;;5014256;28;20464;-58
2023/05/30 11:24:29;;;;;;;5.47;5.03;;;;;;;;;;5014113;28;20412;-58
2023/05/30 11:27:05;;;;;;;7.23;4.77;;;;;;;;;;5013775;28;20417;-57
2023/05/30 11:29:33;;;;;;;5.73;4.60;;;;;;;;;;5013983;28;20421;-58
2023/05/30 11:32:00;;;;;;;8.13;4.40;;;;;;;;;;5013915;28;20894;-60
2023/05/30 11:34:26;;;;;;;5.23;4.83;;;;;;;;;;5014013;28;20575;-58
2023/05/30 11:36:52;;;;;;;13.30;4.87;;;;;;;;;;5013512;28;20435;-58
2023/05/30 11:39:19;;;;;;;11.80;4.77;;;;;;;;;;5013981;28;20414;-58
2023/05/30 11:41:45;;;;;;;6.20;4.10;;;;;;;;;;5012634;28;20470;-58
2023/05/30 11:44:11;;;;;;;5.30;4.90;;;;;;;;;;5013680;28;20466;-58
2023/05/30 11:46:40;;;;;;;8.30;4.27;;;;;;;;;;5013328;28;20415;-57
2023/05/30 11:49:06;;;;;;;5.33;4.83;;;;;;;;;;5013707;28;20536;-58
2023/05/30 11:51:32;;;;;;;5.43;4.50;;;;;;;;;;5013782;28;20416;-58
2023/05/30 11:53:59;;;;;;;12.13;5.40;;;;;;;;;;5012318;28;20572;-58
2023/05/30 11:56:29;;;;;;;5.27;4.77;;;;;;;;;;5013619;28;20460;-58
2023/05/30 11:58:56;;;;;;;5.00;4.47;;;;;;;;;;5013455;28;20450;-58
2023/05/30 12:01:23;;;;;;;54.23;29.60;;;;;;;;;;5013398;28;20427;-58
2023/05/30 12:03:49;;;;;;;5.70;4.87;;;;;;;;;;5013260;28;20414;-58
2023/05/30 12:06:15;;;;;;;7.10;4.20;;;;;;;;;;5013214;28;20441;-58
2023/05/30 12:08:42;;;;;;;17.00;5.93;;;;;;;;;;5013367;28;20445;-57
2023/05/30 12:11:10;;;;;;;16.73;7.73;;;;;;;;;;5013062;28;20417;-58
2023/05/30 12:13:37;;;;;;;15.60;10.80;;;;;;;;;;5012891;28;20931;-58
2023/05/30 12:16:03;;;;;;;31.43;16.30;;;;;;;;;;5012585;28;20461;-58
2023/05/30 12:18:29;;;;;;;5.23;4.07;;;;;;;;;;5012549;28;20424;-58
2023/05/30 12:21:00;;;;;;;7.87;4.90;;;;;;;;;;5011558;28;20420;-58
2023/05/30 12:23:26;;;;;;;9.93;4.03;;;;;;;;;;5013195;28;20702;-58
2023/05/30 12:25:53;;;;;;;4.30;3.90;;;;;;;;;;5012539;28;20413;-58
2023/05/30 12:28:19;;;;;;;10.70;4.40;;;;;;;;;;5012927;28;20443;-58
2023/05/30 12:30:45;;;;;;;7.70;4.20;;;;;;;;;;5012720;28;20413;-58
2023/05/30 12:33:14;;;;;;;4.90;4.10;;;;;;;;;;5011788;28;21131;-58
2023/05/30 12:35:41;;;;;;;5.20;4.27;;;;;;;;;;5012792;28;20527;-58
2023/05/30 12:38:10;;;;;;;4.87;3.97;;;;;;;;;;5012535;28;20439;-57
2023/05/30 12:40:41;;;;;;;4.53;4.13;;;;;;;;;;5012844;28;20464;-58
2023/05/30 12:43:07;;;;;;;8.53;4.37;;;;;;;;;;5012784;28;20413;-58
2023/05/30 12:45:33;;;;;;;10.63;4.50;;;;;;;;;;5012484;28;20436;-58
2023/05/30 12:48:00;;;;;;;4.13;3.77;;;;;;;;;;5012557;28;20436;-58
2023/05/30 12:50:26;;;;;;;11.07;4.17;;;;;;;;;;5012590;28;20441;-58
2023/05/30 12:52:54;;;;;;;6.13;3.93;;;;;;;;;;5012173;28;20463;-58
2023/05/30 12:55:20;;;;;;;4.83;4.07;;;;;;;;;;5012565;28;20468;-58
2023/05/30 12:57:49;;;;;;;8.40;4.90;;;;;;;;;;5012109;28;20409;-58
2023/05/30 13:00:15;;;;;;;7.53;4.30;;;;;;;;;;5015703;28;20450;-58
2023/05/30 13:02:41;;;;;;;4.97;3.80;;;;;;;;;;5016405;28;20775;-58
2023/05/30 13:05:08;;;;;;;5.77;4.23;;;;;;;;;;5016675;28;20466;-58
2023/05/30 13:07:34;;;;;;;5.93;3.70;;;;;;;;;;5016756;28;20466;-58
2023/05/30 13:10:00;;;;;;;7.20;4.03;;;;;;;;;;5015062;28;20723;-58
2023/05/30 13:12:26;;;;;;;6.23;3.40;;;;;;;;;;5016197;28;20459;-58
2023/05/30 13:14:52;;;;;;;7.07;4.40;;;;;;;;;;5015963;28;20543;-58
2023/05/30 13:17:22;;;;;;;6.20;3.80;;;;;;;;;;5016560;28;20416;-58
2023/05/30 13:19:48;;;;;;;5.90;3.83;;;;;;;;;;5016371;28;20432;-58
2023/05/30 13:22:14;;;;;;;4.43;4.13;;;;;;;;;;5015841;28;20419;-58
2023/05/30 13:24:40;;;;;;;4.73;4.10;;;;;;;;;;5015820;28;20430;-58
2023/05/30 13:27:06;;;;;;;13.67;4.20;;;;;;;;;;5015897;28;20426;-58
2023/05/30 13:29:33;;;;;;;5.30;3.70;;;;;;;;;;5015923;28;20557;-58
2023/05/30 13:31:59;;;;;;;6.00;4.10;;;;;;;;;;5016327;28;20918;-58
2023/05/30 13:34:28;;;;;;;5.23;4.10;;;;;;;;;;5015822;28;20426;-58
2023/05/30 13:36:54;;;;;;;4.23;3.63;;;;;;;;;;5015019;28;20416;-58
2023/05/30 13:39:20;;;;;;;4.97;4.27;;;;;;;;;;5014511;28;20428;-58
2023/05/30 13:41:51;;;;;;;4.30;4.00;;;;;;;;;;5016099;28;20429;-58
2023/05/30 13:44:19;;;;;;;5.47;3.67;;;;;;;;;;5015892;28;20779;-58
2023/05/30 13:46:45;;;;;;;3.90;3.70;;;;;;;;;;5015705;28;20451;-58
2023/05/30 13:49:12;;;;;;;5.80;4.37;;;;;;;;;;5015797;28;20432;-58
2023/05/30 13:51:38;;;;;;;4.13;3.53;;;;;;;;;;5015518;28;20432;-58
2023/05/30 13:54:04;;;;;;;6.23;4.37;;;;;;;;;;5015511;28;20424;-58
2023/05/30 13:56:30;;;;;;;5.50;3.30;;;;;;;;;;5015750;28;20954;-58
2023/05/30 13:58:56;;;;;;;4.33;4.03;;;;;;;;;;5015509;28;20730;-58
2023/05/30 14:01:22;;;;;;;4.03;3.83;;;;;;;;;;5015216;28;20438;-58
2023/05/30 14:03:53;;;;;;;12.73;3.97;;;;;;;;;;5015901;28;20397;-58
2023/05/30 14:06:19;;;;;;;5.13;4.07;;;;;;;;;;5015706;28;20792;-58
2023/05/30 14:08:45;;;;;;;4.03;3.73;;;;;;;;;;5015613;28;20437;-58
2023/05/30 14:11:11;;;;;;;7.50;3.90;;;;;;;;;;5014889;28;20442;-58
2023/05/30 14:13:39;;;;;;;7.07;3.80;;;;;;;;;;5015048;28;20442;-58
2023/05/30 14:16:05;;;;;;;4.40;4.00;;;;;;;;;;5015235;28;20472;-58
2023/05/30 14:18:34;;;;;;;5.77;3.73;;;;;;;;;;5015256;28;20415;-58
2023/05/30 14:21:02;;;;;;;4.40;4.00;;;;;;;;;;5015331;28;20446;-61
2023/05/30 14:23:28;;;;;;;3.80;3.50;;;;;;;;;;5015276;28;20529;-62
2023/05/30 14:25:56;;;;;;;8.40;4.30;;;;;;;;;;5015077;28;20443;-62
2023/05/30 14:28:22;;;;;;;4.03;3.73;;;;;;;;;;5013871;28;20436;-62
2023/05/30 14:30:50;;;;;;;5.27;3.90;;;;;;;;;;5014967;28;20897;-62
2023/05/30 14:33:16;;;;;;;7.53;4.13;;;;;;;;;;5015079;28;20459;-62
2023/05/30 14:35:45;;;;;;;7.07;3.97;;;;;;;;;;5014688;28;20495;-62
2023/05/30 14:38:11;;;;;;;5.13;4.40;;;;;;;;;;5015007;28;20451;-62
2023/05/30 14:40:37;;;;;;;7.57;3.70;;;;;;;;;;5015155;28;20779;-62